Rechercher aéroport 
image banner adimage banner adimage banner ad
image banner ad

58N - Reigle Field

Situé à Palmyra, United States

ICAO - 58N, IATA -

Données fournies par Airmate  

Information générale

Coordonnées: N40°17'12" W76°34'37"
Élévation : 489 feet MSL.
Variation magnétique : -10° East
Voir autres Aéroports à Pennsylvania

Données opérationnelles

Special qualification required
Heure actuelle UTC:
Heure actuelle locale:
METAR: KMUI 132104Z AUTO 05004KT 10SM FEW006 SCT017 BKN024 OVC030 22/21 A2987 RMK AO2 CIG 015V024 SLP115
Voir NOTAMs / SUP AIP / TFR affectant cet aéroport [VIEW]
Fréquences de communication: [VIEW]

Pistes:

Identifiant RWYQFULongueur (ft)Largeur (ft)SurfaceLDA (ft)
13117°195540ASPH
31297°195540ASPH

Coordonnées de l'aéroport

Adresse: Palmyra United States

Autres services d'aviation

Écoles de pilotage

Reigle Aviation

Reigle Aviation

Vue satellite de 58N